Airfield :
LOGIN :

Register | Disclaimer

   EN    FR    IT 

 










Legend :    VFR   Marginal VFR   IFR   Intensive IFR   Very Intensive IFR
Visi :
Ceiling :
>= 8 km
>= 3000ft
5 to 8 km
1000 to 3000 ft
1500m to 5 km
500 to 1000 ft
800 to 1500m
200 to 500 ft
< 800m
< 200 ft
Symbols :   Thunderstorms  Fog  Heavy snow  Heavy precipitations  Wind > 20 kt
SIGMETs :     Misc.  Thunderstorms  Icing  Turbulence  Mountain Waves  Volcanic Ashes







- Airport Elevation : 218 ft
- IATA code : LBG
- Download approach charts


LFPB - Paris / Le Bourget

CURRENT METAR :
  • 231800Z AUTO VRB01KT 9999 BKN023 BKN030 OVC035 11/10 Q1009 NOSIG

EXPIRED METARs :
  • 231730Z AUTO 00000KT 9999 BKN027 BKN033 11/09 Q1009 NOSIG
  • 231700Z AUTO VRB02KT 9999 FEW021/// SCT027/// OVC036/// ///TCU 12/10 Q1009 BECMG BKN030
  • 231630Z AUTO VRB03KT 9999 FEW016 SCT025 BKN042 13/10 Q1009 NOSIG
  • 231600Z AUTO 28005KT 240V330 9999 FEW024/// OVC048/// ///CB 14/11 Q1008 TEMPO 22020G30KT BECMG BKN030
  • 231530Z AUTO 22006KT 9999 FEW038 BKN048 OVC072 14/12 Q1008 TEMPO 22020G30KT

TAF TAF LFPB
Valid from the 23 at 18:00 until the 24 at 18:00 UTC


231700Z 2318/2418 25008KT 9999 BKN030
TEMPO 2323/2414 -RA BKN012
TEMPO 2402/2409 22015G30KT
ATIS : +33 1 48 62 43 92
No reported NOTAMs for that airfield.



MET'MAP, your aeronautical weather chart ! - Copyright ORBIFLY December 2007 - Disclaimer

ORBIFLY MET'MAP TEAM :

Programming & Development : Alexandra Zaïnal
Concept & Development : Baudouin d'Aumeries
Co-Development & Prog : Marc-Olivier Méhu
Technical & hardware support : Manuel Goepfert

Contact : metmap@orbifly.com




SOURCES & CREDITS :

   NOAA